Time;durP1;ratioP1;P1;durP2;ratioP2;P2;SDS_P1;SDS_P2;PMS_P1;PMS_P2;Temp;Humidity;BMP_temperature;BMP_pressure;BME280_temperature;BME280_humidity;BME280_pressure;Samples;Min_cycle;Max_cycle;Signal;HPM_P1;HPM_P2
2021/12/05 00:23:44;;;;;;;2.90;1.37;;;4.00;99.90;;;;;;5010941;28;20256;-81
2021/12/05 00:26:16;;;;;;;3.83;1.80;;;3.80;99.90;;;;;;5010937;28;20038;-81
2021/12/05 00:43:10;;;;;;;3.73;1.20;;;3.50;99.90;;;;;;5010831;28;20033;-80
2021/12/05 00:50:35;;;;;;;2.07;1.10;;;3.40;99.90;;;;;;4991329;28;20473;-80
2021/12/05 01:09:22;;;;;;;3.60;1.17;;;3.20;99.90;;;;;;5010471;28;20555;-80
2021/12/05 01:12:09;;;;;;;3.50;1.40;;;3.20;99.90;;;;;;5010045;28;20518;-80
2021/12/05 01:14:58;;;;;;;2.47;1.23;;;3.20;99.90;;;;;;5009925;28;20030;-80
2021/12/05 01:17:29;;;;;;;2.83;1.33;;;3.10;99.90;;;;;;5010386;28;20474;-80
2021/12/05 01:19:56;;;;;;;1.77;1.30;;;3.10;99.90;;;;;;5010074;28;20085;-81
2021/12/05 01:22:23;;;;;;;3.10;1.20;;;3.10;99.90;;;;;;5010139;28;20034;-80
2021/12/05 01:27:35;;;;;;;1.80;1.07;;;3.10;99.90;;;;;;5010048;28;20086;-80
2021/12/05 01:30:33;;;;;;;3.93;1.20;;;3.00;99.90;;;;;;5010093;28;20092;-80
2021/12/05 01:33:03;;;;;;;3.20;1.20;;;3.10;99.90;;;;;;5009749;28;20045;-80
2021/12/05 01:35:56;;;;;;;1.93;1.10;;;3.10;99.90;;;;;;5010020;28;20022;-80
2021/12/05 01:38:44;;;;;;;3.27;1.20;;;3.00;99.90;;;;;;4992770;28;20358;-80
2021/12/05 02:32:33;;;;;;;5.07;1.50;;;2.90;99.90;;;;;;5012411;28;20037;-80
2021/12/05 02:34:28;;;;;;;3.13;1.50;;;2.80;99.90;;;;;;4998630;28;20034;-80
2021/12/05 02:37:18;;;;;;;4.27;1.53;;;2.70;99.90;;;;;;5011948;28;20018;-80
2021/12/05 02:42:33;;;;;;;4.13;1.43;;;2.50;99.90;;;;;;5011881;28;20086;-80
2021/12/05 02:45:03;;;;;;;2.97;1.37;;;2.50;99.90;;;;;;5012215;28;20026;-80
2021/12/05 02:47:29;;;;;;;3.37;1.53;;;2.40;99.90;;;;;;5011860;28;20029;-80
2021/12/05 02:49:58;;;;;;;3.50;1.57;;;2.30;99.90;;;;;;5011675;28;20068;-82
2021/12/05 02:52:30;;;;;;;3.87;1.50;;;2.40;99.90;;;;;;5011726;28;20030;-82
2021/12/05 02:55:37;;;;;;;2.43;1.30;;;2.40;99.90;;;;;;4994145;28;20415;-82
2021/12/05 02:58:14;;;;;;;1.92;1.30;;;2.30;99.90;;;;;;5011569;28;20026;-82
2021/12/05 03:00:53;;;;;;;1.63;1.07;;;2.20;99.90;;;;;;5011599;28;20034;-81
2021/12/05 03:03:21;;;;;;;1.93;1.40;;;2.10;99.90;;;;;;5010987;28;20022;-81
2021/12/05 03:05:52;;;;;;;1.80;1.30;;;2.10;99.90;;;;;;5011510;28;20462;-81
2021/12/05 03:08:19;;;;;;;2.87;1.30;;;2.00;99.90;;;;;;5012006;28;20471;-81
2021/12/05 03:10:45;;;;;;;2.03;1.60;;;2.10;99.90;;;;;;4993905;28;20073;-81
2021/12/05 03:13:11;;;;;;;3.97;1.23;;;2.00;99.90;;;;;;4994492;28;20496;-81
2021/12/05 03:15:36;;;;;;;5.80;1.50;;;2.00;99.90;;;;;;5011706;28;20053;-81
2021/12/05 03:18:03;;;;;;;3.40;1.40;;;2.00;99.90;;;;;;4994083;28;20061;-82
2021/12/05 03:20:29;;;;;;;3.23;1.07;;;2.10;99.90;;;;;;5011431;28;20071;-82
2021/12/05 03:22:54;;;;;;;3.33;1.03;;;2.10;99.90;;;;;;5011366;28;20521;-81
2021/12/05 03:25:21;;;;;;;2.60;1.23;;;2.00;99.90;;;;;;5011613;28;20033;-82
2021/12/05 03:27:46;;;;;;;4.20;1.17;;;2.00;99.90;;;;;;5011101;28;20030;-82
2021/12/05 03:30:18;;;;;;;5.40;1.17;;;2.00;99.90;;;;;;5010345;28;20045;-82
2021/12/05 03:32:46;;;;;;;5.27;1.23;;;2.00;99.90;;;;;;4992081;28;20025;-82
2021/12/05 03:35:11;;;;;;;2.37;1.13;;;2.00;99.90;;;;;;5010854;28;20019;-82
2021/12/05 03:37:37;;;;;;;1.70;1.10;;;2.00;99.90;;;;;;5011092;28;20356;-82
2021/12/05 03:40:05;;;;;;;4.37;1.20;;;2.00;99.90;;;;;;5010903;28;20080;-82
2021/12/05 03:42:31;;;;;;;2.00;1.27;;;2.00;99.90;;;;;;5010902;28;20024;-82
2021/12/05 03:44:57;;;;;;;5.73;1.47;;;2.00;99.90;;;;;;5010794;28;20022;-82
2021/12/05 03:47:27;;;;;;;6.10;1.90;;;2.00;99.90;;;;;;5010606;28;20069;-82
2021/12/05 03:49:53;;;;;;;4.00;2.00;;;2.00;99.90;;;;;;5010720;28;20079;-83
2021/12/05 03:52:18;;;;;;;7.10;2.10;;;1.90;99.90;;;;;;5008654;28;20026;-83
2021/12/05 03:54:45;;;;;;;3.67;1.80;;;1.90;99.90;;;;;;5008247;28;20030;-83
2021/12/05 03:57:11;;;;;;;5.57;1.30;;;1.90;99.90;;;;;;4991266;28;20440;-83
2021/12/05 03:59:40;;;;;;;7.30;1.30;;;1.80;99.90;;;;;;5009170;28;20014;-83
2021/12/05 04:02:07;;;;;;;3.77;1.50;;;1.90;99.90;;;;;;5008825;28;20416;-83
2021/12/05 04:04:34;;;;;;;4.60;1.20;;;1.80;99.90;;;;;;5008407;28;20026;-83
2021/12/05 04:07:02;;;;;;;3.53;1.30;;;1.80;99.90;;;;;;5008739;28;20034;-83
2021/12/05 04:09:28;;;;;;;3.50;1.00;;;1.70;99.90;;;;;;5008526;28;20080;-83
2021/12/05 04:11:58;;;;;;;7.43;1.53;;;1.70;99.90;;;;;;4990837;28;20398;-83
2021/12/05 04:14:27;;;;;;;3.40;1.10;;;1.70;99.90;;;;;;5008521;28;20079;-83
2021/12/05 04:16:54;;;;;;;6.10;1.87;;;1.70;99.90;;;;;;4991210;28;20030;-83
2021/12/05 04:19:20;;;;;;;3.30;1.10;;;1.60;99.90;;;;;;5008439;28;20106;-83
2021/12/05 04:21:45;;;;;;;4.57;1.30;;;1.60;99.90;;;;;;5007791;28;20120;-83
2021/12/05 04:24:12;;;;;;;4.23;1.20;;;1.60;99.90;;;;;;5008442;28;20425;-83
2021/12/05 04:26:40;;;;;;;5.13;1.73;;;1.60;99.90;;;;;;5008371;28;20022;-83
2021/12/05 04:29:07;;;;;;;3.97;1.37;;;1.60;99.90;;;;;;5008376;28;20022;-82
2021/12/05 04:31:34;;;;;;;4.77;1.10;;;1.60;99.90;;;;;;5007837;28;20038;-83
2021/12/05 04:34:00;;;;;;;4.10;1.13;;;1.50;99.90;;;;;;5008300;28;20033;-83
2021/12/05 04:36:25;;;;;;;5.40;1.50;;;1.50;99.90;;;;;;5008390;28;20102;-83
2021/12/05 04:38:51;;;;;;;6.50;1.50;;;1.60;99.90;;;;;;5007356;28;20070;-83
2021/12/05 04:41:17;;;;;;;7.83;1.53;;;1.60;99.90;;;;;;5008113;28;20034;-83
2021/12/05 04:43:43;;;;;;;2.63;1.33;;;1.60;99.90;;;;;;5008159;28;20084;-83
2021/12/05 04:46:16;;;;;;;6.23;1.33;;;1.60;99.90;;;;;;5008414;28;20030;-83
2021/12/05 04:48:46;;;;;;;2.20;1.27;;;1.50;99.90;;;;;;5008456;28;20037;-83
2021/12/05 04:51:13;;;;;;;6.43;1.53;;;1.50;99.90;;;;;;5008045;28;20030;-82
2021/12/05 04:53:38;;;;;;;5.43;1.50;;;1.50;99.90;;;;;;5007950;28;20026;-83
2021/12/05 04:56:04;;;;;;;4.30;2.27;;;1.50;99.90;;;;;;4990837;28;20109;-83
2021/12/05 04:58:31;;;;;;;7.00;1.57;;;1.50;99.90;;;;;;5008028;28;20026;-83
2021/12/05 05:00:57;;;;;;;3.17;1.60;;;1.50;99.90;;;;;;5008213;28;20030;-82
2021/12/05 05:03:24;;;;;;;5.87;1.77;;;1.50;99.90;;;;;;5007817;28;20037;-82
2021/12/05 05:05:58;;;;;;;5.20;1.77;;;1.60;99.90;;;;;;5008566;28;20395;-82
2021/12/05 05:08:26;;;;;;;2.83;1.40;;;1.50;99.90;;;;;;5007850;28;20374;-82
2021/12/05 05:10:51;;;;;;;3.80;1.60;;;1.60;99.90;;;;;;5007355;28;20126;-82
2021/12/05 05:13:17;;;;;;;4.07;1.50;;;1.60;99.90;;;;;;5007520;28;20044;-82
2021/12/05 05:15:43;;;;;;;5.03;1.83;;;1.60;99.90;;;;;;5007613;28;20164;-82
2021/12/05 05:18:10;;;;;;;5.53;1.60;;;1.60;99.90;;;;;;5007847;28;20425;-82
2021/12/05 05:20:47;;;;;;;6.83;1.77;;;1.60;99.90;;;;;;5007469;28;20022;-82
2021/12/05 05:26:33;;;;;;;6.57;1.80;;;1.60;99.90;;;;;;5007783;28;20033;-82
2021/12/05 05:50:24;;;;;;;4.57;1.80;;;1.60;99.90;;;;;;4971404;28;20041;-83
2021/12/05 05:52:49;;;;;;;5.50;1.67;;;1.60;99.90;;;;;;5010887;28;20030;-83
2021/12/05 05:55:15;;;;;;;3.77;2.00;;;1.60;99.90;;;;;;5010738;28;20030;-83
2021/12/05 06:00:14;;;;;;;4.93;1.47;;;1.60;99.90;;;;;;5010021;28;20068;-82
2021/12/05 06:05:28;;;;;;;5.87;1.90;;;1.50;99.90;;;;;;5010582;28;20137;-82
2021/12/05 06:07:54;;;;;;;5.60;2.10;;;1.50;99.90;;;;;;4992122;28;20053;-81
2021/12/05 06:10:23;;;;;;;5.00;2.10;;;1.40;99.90;;;;;;5009676;28;20085;-82
2021/12/05 06:12:49;;;;;;;7.40;2.30;;;1.40;99.90;;;;;;4998409;28;20060;-82
2021/12/05 06:15:20;;;;;;;7.50;2.00;;;1.40;99.90;;;;;;5011512;28;20029;-80
2021/12/05 06:17:45;;;;;;;4.70;1.90;;;1.30;99.90;;;;;;5012669;28;20050;-80
2021/12/05 06:20:15;;;;;;;7.27;1.87;;;1.30;99.90;;;;;;5007515;28;20069;-80
2021/12/05 06:22:41;;;;;;;4.47;1.67;;;1.30;99.90;;;;;;5016738;28;20121;-80
2021/12/05 06:25:11;;;;;;;3.50;1.87;;;1.30;99.90;;;;;;5012664;28;20474;-80
2021/12/05 06:27:37;;;;;;;7.33;2.20;;;1.40;99.90;;;;;;5012289;28;20018;-80
2021/12/05 06:30:08;;;;;;;4.80;1.70;;;1.40;99.90;;;;;;5012274;28;20531;-80
2021/12/05 06:38:00;;;;;;;6.15;1.90;;;1.40;99.90;;;;;;5078347;28;20023;-81
2021/12/05 06:40:50;;;;;;;5.10;1.93;;;1.40;99.90;;;;;;5057246;28;20051;-83
2021/12/05 06:46:18;;;;;;;5.70;1.90;;;1.40;99.90;;;;;;5009558;28;20033;-83
2021/12/05 06:48:45;;;;;;;7.63;2.07;;;1.40;99.90;;;;;;4992314;28;20056;-82
2021/12/05 06:51:13;;;;;;;7.60;2.10;;;1.40;99.90;;;;;;5009010;28;20040;-82
2021/12/05 06:53:39;;;;;;;5.67;2.13;;;1.50;99.90;;;;;;5011851;28;20029;-79
2021/12/05 06:56:06;;;;;;;8.57;2.50;;;1.40;99.90;;;;;;5012167;28;20036;-79
2021/12/05 06:58:32;;;;;;;8.30;2.20;;;1.50;99.90;;;;;;5012158;28;20025;-79
2021/12/05 07:01:00;;;;;;;8.47;2.03;;;1.40;99.90;;;;;;5012128;28;20046;-78
2021/12/05 07:03:26;;;;;;;6.97;2.23;;;1.50;99.90;;;;;;5009954;28;20032;-82
2021/12/05 07:08:17;;;;;;;6.17;2.03;;;1.50;99.90;;;;;;5009162;28;20121;-82
2021/12/05 07:16:00;;;;;;;5.80;1.70;;;1.50;99.90;;;;;;5008858;28;19969;-82
2021/12/05 07:26:15;;;;;;;10.40;2.07;;;1.60;99.90;;;;;;4991518;28;20027;-82
2021/12/05 07:42:24;;;;;;;4.53;2.07;;;1.70;99.90;;;;;;5008794;28;20481;-82
2021/12/05 07:44:56;;;;;;;6.83;1.90;;;1.80;99.90;;;;;;5009000;28;20029;-82
2021/12/05 07:47:26;;;;;;;6.77;2.20;;;1.80;99.90;;;;;;4991169;28;20068;-82
2021/12/05 07:49:53;;;;;;;7.70;2.20;;;1.80;99.90;;;;;;5008009;28;20839;-82
2021/12/05 07:52:24;;;;;;;5.60;2.13;;;1.90;99.90;;;;;;5008894;28;20022;-82
2021/12/05 07:54:57;;;;;;;6.03;2.50;;;1.90;99.90;;;;;;5008504;28;20501;-82
2021/12/05 07:57:29;;;;;;;4.43;2.20;;;2.00;99.90;;;;;;5008615;28;20017;-88
2021/12/05 08:16:10;;;;;;;4.20;1.70;;;2.70;99.90;;;;;;5006577;28;20032;-83
2021/12/05 08:18:36;;;;;;;3.80;1.70;;;2.70;99.90;;;;;;5007618;28;20082;-83
2021/12/05 08:21:05;;;;;;;6.10;1.77;;;2.70;99.90;;;;;;5007783;28;20029;-80
2021/12/05 08:23:31;;;;;;;4.90;1.60;;;2.90;99.90;;;;;;5010382;28;20037;-81
2021/12/05 08:26:05;;;;;;;3.40;1.40;;;2.90;99.90;;;;;;5010650;28;20026;-80
2021/12/05 08:36:43;;;;;;;5.53;1.73;;;3.20;99.90;;;;;;5009287;28;20029;-81
2021/12/05 08:39:31;;;;;;;2.87;1.67;;;3.20;99.90;;;;;;5007641;28;20029;-82
2021/12/05 08:45:47;;;;;;;4.37;1.50;;;3.30;99.90;;;;;;5007915;28;20037;-83
2021/12/05 09:26:00;;;;;;;3.93;1.50;;;3.50;99.90;;;;;;4991591;28;20067;-77
2021/12/05 09:51:12;;;;;;;6.47;1.87;;;3.70;99.90;;;;;;5013332;28;20159;-82
2021/12/05 10:03:33;;;;;;;5.43;1.70;;;4.20;99.90;;;;;;5012904;28;20049;-85
2021/12/05 10:36:19;;;;;;;6.63;1.70;;;4.50;99.90;;;;;;5012165;28;20026;-79
2021/12/05 10:38:51;;;;;;;4.63;1.50;;;4.50;99.90;;;;;;5011674;28;20370;-82
2021/12/05 10:41:46;;;;;;;8.07;1.70;;;4.50;99.90;;;;;;5011719;28;20030;-82
2021/12/05 10:44:12;;;;;;;3.10;1.50;;;4.60;99.90;;;;;;5011210;28;20022;-80
2021/12/05 10:46:39;;;;;;;4.57;1.73;;;4.60;99.90;;;;;;5012372;28;20151;-81
2021/12/05 10:49:16;;;;;;;3.50;1.50;;;4.60;99.90;;;;;;5066084;28;20470;-81
2021/12/05 10:51:49;;;;;;;4.73;1.77;;;4.70;99.90;;;;;;5054124;28;20024;-83
2021/12/05 10:54:21;;;;;;;4.70;1.50;;;4.70;99.90;;;;;;5011371;28;20041;-81
2021/12/05 10:56:51;;;;;;;4.00;1.40;;;4.70;99.90;;;;;;5009737;28;20026;-83
2021/12/05 10:59:26;;;;;;;7.40;1.73;;;4.70;99.90;;;;;;5009677;28;20072;-83
2021/12/05 11:01:58;;;;;;;5.87;1.60;;;4.70;99.90;;;;;;4992191;28;20026;-83
2021/12/05 11:04:29;;;;;;;5.13;1.50;;;4.70;99.90;;;;;;5008601;28;20155;-83
2021/12/05 11:06:56;;;;;;;4.13;1.80;;;4.70;99.90;;;;;;5010217;28;20033;-82
2021/12/05 11:09:42;;;;;;;11.93;1.97;;;4.70;99.90;;;;;;5010046;28;20133;-82
2021/12/05 11:12:23;;;;;;;7.57;2.10;;;4.70;99.90;;;;;;5078248;28;20073;-82
2021/12/05 11:14:52;;;;;;;3.87;2.10;;;4.70;99.90;;;;;;5008081;28;20083;-83
2021/12/05 11:17:21;;;;;;;5.17;1.50;;;4.70;99.90;;;;;;4992480;28;20075;-82
2021/12/05 11:19:50;;;;;;;6.37;1.60;;;4.70;99.90;;;;;;5011147;28;20515;-81
2021/12/05 11:22:40;;;;;;;5.37;1.90;;;4.70;99.90;;;;;;5011960;28;20022;-81
2021/12/05 11:25:16;;;;;;;3.63;1.63;;;4.70;99.90;;;;;;5012493;28;20032;-81
2021/12/05 11:27:51;;;;;;;3.17;1.40;;;4.70;99.90;;;;;;5011772;28;20026;-81
2021/12/05 11:30:19;;;;;;;;;;;4.70;99.90;;;;;;5012342;28;20061;-81
2021/12/05 11:32:59;;;;;;;3.80;1.43;;;4.70;99.90;;;;;;4992245;28;19910;-81
2021/12/05 11:35:36;;;;;;;4.47;1.40;;;4.70;99.90;;;;;;5005412;28;20128;-80
2021/12/05 11:38:24;;;;;;;6.57;1.70;;;4.60;99.90;;;;;;5005883;28;20433;-79
2021/12/05 11:41:02;;;;;;;4.90;1.50;;;4.60;99.90;;;;;;5039268;28;20047;-77
2021/12/05 11:43:37;;;;;;;4.77;1.37;;;4.60;99.90;;;;;;5012241;28;20405;-78
2021/12/05 11:46:14;;;;;;;5.47;1.60;;;4.60;99.90;;;;;;5007034;28;20037;-79
2021/12/05 11:48:49;;;;;;;5.97;1.57;;;4.60;99.90;;;;;;5010735;28;20030;-79
2021/12/05 11:51:30;;;;;;;4.67;1.70;;;4.70;99.90;;;;;;5007128;28;20041;-82
2021/12/05 11:54:21;;;;;;;6.33;1.40;;;4.70;99.90;;;;;;4986918;28;20476;-82
2021/12/05 11:56:56;;;;;;;3.67;1.57;;;4.60;99.90;;;;;;5005998;28;20538;-82
2021/12/05 11:59:36;;;;;;;5.27;1.53;;;4.60;99.90;;;;;;5049642;28;20041;-82
2021/12/05 12:02:22;;;;;;;4.30;1.60;;;4.60;99.90;;;;;;5006336;28;20101;-82
2021/12/05 12:04:55;;;;;;;6.13;1.80;;;4.70;99.90;;;;;;5008934;28;20041;-82
2021/12/05 12:07:45;;;;;;;7.17;1.70;;;4.70;99.90;;;;;;5005565;28;20086;-82
2021/12/05 12:10:22;;;;;;;3.50;1.60;;;4.60;99.90;;;;;;5006878;28;20049;-80
2021/12/05 12:13:01;;;;;;;6.23;2.00;;;4.60;99.90;;;;;;5005767;28;20037;-79
2021/12/05 12:15:28;;;;;;;5.33;1.50;;;4.70;99.90;;;;;;5006093;28;20041;-78
2021/12/05 12:18:04;;;;;;;6.63;2.17;;;4.60;99.90;;;;;;5006230;28;20462;-79
2021/12/05 12:20:30;;;;;;;3.92;1.65;;;4.60;99.90;;;;;;5007272;28;20026;-80
2021/12/05 12:22:56;;;;;;;6.80;2.53;;;4.60;99.90;;;;;;5007988;28;20033;-81
2021/12/05 12:25:29;;;;;;;3.60;1.60;;;4.60;99.90;;;;;;5008108;28;20474;-80
2021/12/05 12:27:54;;;;;;;6.07;2.00;;;4.60;99.90;;;;;;5004594;28;20021;-80
2021/12/05 12:30:26;;;;;;;5.17;1.80;;;4.50;99.90;;;;;;5011972;28;20034;-80
2021/12/05 12:33:04;;;;;;;4.97;1.60;;;4.50;99.90;;;;;;5007778;28;20371;-80
2021/12/05 12:35:33;;;;;;;9.50;3.30;;;4.50;99.90;;;;;;5008320;28;20423;-80
2021/12/05 12:38:00;;;;;;;4.53;1.70;;;4.50;99.90;;;;;;5003973;28;20053;-80
2021/12/05 12:40:38;;;;;;;4.90;1.60;;;4.50;99.90;;;;;;5003760;28;20022;-80
2021/12/05 12:43:06;;;;;;;3.67;1.77;;;4.50;99.90;;;;;;5004959;28;20021;-80
2021/12/05 12:45:43;;;;;;;5.00;2.07;;;4.50;99.90;;;;;;5004026;28;20146;-80
2021/12/05 12:48:16;;;;;;;4.27;2.13;;;4.50;99.90;;;;;;4985945;28;20053;-80
2021/12/05 12:50:52;;;;;;;5.13;1.57;;;4.50;99.90;;;;;;5004954;28;20080;-80
2021/12/05 12:53:37;;;;;;;4.93;1.40;;;4.50;99.90;;;;;;5004704;28;20030;-80
2021/12/05 12:56:09;;;;;;;8.40;2.40;;;4.50;99.90;;;;;;5005108;28;20026;-80
2021/12/05 12:58:49;;;;;;;4.93;1.80;;;4.50;99.90;;;;;;5003287;28;20482;-80
2021/12/05 13:04:29;;;;;;;5.07;1.60;;;4.50;99.90;;;;;;4982360;28;20027;-82
2021/12/05 13:10:04;;;;;;;4.37;1.80;;;4.40;99.90;;;;;;4983524;28;20095;-81
2021/12/05 13:12:44;;;;;;;3.40;1.70;;;4.40;99.90;;;;;;4983618;28;20038;-81
2021/12/05 13:15:12;;;;;;;4.50;2.00;;;4.50;99.90;;;;;;4984221;28;20363;-81
2021/12/05 13:17:44;;;;;;;3.53;1.30;;;4.50;99.90;;;;;;4983048;28;20052;-78
2021/12/05 13:20:11;;;;;;;4.30;1.50;;;4.50;99.90;;;;;;4982104;28;20037;-79
2021/12/05 13:23:16;;;;;;;5.83;1.60;;;4.50;99.90;;;;;;4982563;28;20123;-79
2021/12/05 13:26:01;;;;;;;6.30;2.00;;;4.50;99.90;;;;;;4979912;28;20060;-79
2021/12/05 13:28:35;;;;;;;4.33;1.87;;;4.50;99.90;;;;;;4985683;28;20030;-79
2021/12/05 13:31:40;;;;;;;6.53;1.70;;;4.50;99.90;;;;;;4985518;28;20442;-81
2021/12/05 13:34:32;;;;;;;3.85;1.73;;;4.50;99.90;;;;;;4985987;28;20114;-83
2021/12/05 13:37:08;;;;;;;11.50;1.97;;;4.50;99.90;;;;;;4985751;28;20034;-77
2021/12/05 13:39:52;;;;;;;5.90;1.60;;;4.50;99.90;;;;;;4986004;28;20038;-77
2021/12/05 13:42:23;;;;;;;3.57;1.50;;;4.50;99.90;;;;;;4978313;28;20424;-77
2021/12/05 13:45:04;;;;;;;4.73;1.83;;;4.40;99.90;;;;;;4972654;28;20037;-77
2021/12/05 13:47:37;;;;;;;6.73;1.83;;;4.40;99.90;;;;;;4977036;28;20038;-77
2021/12/05 13:50:18;;;;;;;7.43;1.97;;;4.40;99.90;;;;;;4978165;28;20038;-77
2021/12/05 13:53:01;;;;;;;3.63;1.90;;;4.40;99.90;;;;;;4983197;28;20156;-78
2021/12/05 13:55:36;;;;;;;8.03;2.13;;;4.40;99.90;;;;;;4979133;28;20027;-77
2021/12/05 13:58:23;;;;;;;6.78;1.73;;;4.40;99.90;;;;;;4979151;28;20018;-78
2021/12/05 14:01:04;;;;;;;6.50;1.80;;;4.40;99.90;;;;;;4982342;28;20076;-78
2021/12/05 14:03:56;;;;;;;5.40;1.93;;;4.40;99.90;;;;;;4983490;28;20030;-78
2021/12/05 14:06:44;;;;;;;4.07;1.57;;;4.40;99.90;;;;;;4980028;28;20057;-78
2021/12/05 14:09:18;;;;;;;7.60;2.63;;;4.40;99.90;;;;;;4978302;28;20439;-77
2021/12/05 14:11:59;;;;;;;6.30;2.25;;;4.30;99.90;;;;;;4979724;28;20033;-78
2021/12/05 14:14:29;;;;;;;6.90;2.23;;;4.40;99.90;;;;;;5009346;28;20373;-78
2021/12/05 14:16:57;;;;;;;7.67;2.00;;;4.30;99.90;;;;;;5026269;28;20019;-77
2021/12/05 14:19:27;;;;;;;6.57;1.73;;;4.30;99.90;;;;;;5012385;22;20034;-77
2021/12/05 14:21:56;;;;;;;8.63;2.97;;;4.30;99.90;;;;;;4979458;28;20066;-77
2021/12/05 14:24:25;;;;;;;5.43;3.57;;;4.30;99.90;;;;;;5002454;28;20165;-78
2021/12/05 14:26:53;;;;;;;12.37;5.87;;;4.30;99.90;;;;;;4950820;29;20042;-78
2021/12/05 14:29:23;;;;;;;7.97;4.23;;;4.20;99.90;;;;;;4977865;28;20036;-79
2021/12/05 14:32:12;;;;;;;8.50;3.10;;;4.20;99.90;;;;;;4962487;28;20484;-78
2021/12/05 14:34:40;;;;;;;3.90;2.20;;;4.20;99.90;;;;;;4971287;28;20041;-79
2021/12/05 14:37:15;;;;;;;6.60;1.90;;;4.20;99.90;;;;;;4956560;28;20102;-79
2021/12/05 14:39:55;;;;;;;6.13;3.00;;;4.10;99.90;;;;;;4951618;28;20027;-79
2021/12/05 14:42:24;;;;;;;9.20;2.40;;;4.10;99.90;;;;;;4951500;28;20036;-79
2021/12/05 14:44:57;;;;;;;8.73;2.90;;;4.10;99.90;;;;;;4972025;28;20035;-80
2021/12/05 14:47:26;;;;;;;4.37;1.87;;;4.00;99.90;;;;;;4951570;29;20043;-77
2021/12/05 14:49:58;;;;;;;5.57;1.80;;;4.00;99.90;;;;;;4951376;29;20035;-80
2021/12/05 14:52:34;;;;;;;4.53;1.87;;;4.00;99.90;;;;;;4951749;28;20035;-79
2021/12/05 14:55:02;;;;;;;5.93;2.10;;;3.90;99.90;;;;;;4977981;28;20039;-79
2021/12/05 14:57:34;;;;;;;6.83;2.43;;;3.90;99.90;;;;;;4984868;28;20475;-78
2021/12/05 15:00:08;;;;;;;13.30;3.67;;;3.90;99.90;;;;;;5029157;28;20037;-80
2021/12/05 15:02:35;;;;;;;10.13;2.95;;;3.80;99.90;;;;;;5017184;28;20166;-79
2021/12/05 15:05:01;;;;;;;5.33;1.73;;;3.80;99.90;;;;;;5038773;28;20489;-80
2021/12/05 15:07:27;;;;;;;6.30;2.00;;;3.80;99.90;;;;;;5028858;28;20120;-83
2021/12/05 15:09:57;;;;;;;5.20;2.50;;;3.70;99.90;;;;;;5044500;28;20166;-84
2021/12/05 15:12:26;;;;;;;5.87;1.63;;;3.60;99.90;;;;;;4931805;29;20052;-79
2021/12/05 15:14:54;;;;;;;6.83;1.70;;;3.50;99.90;;;;;;4931909;29;20111;-80
2021/12/05 15:17:29;;;;;;;3.37;1.80;;;3.40;99.90;;;;;;4932114;29;20032;-79
2021/12/05 15:20:09;;;;;;;6.93;2.50;;;3.30;99.90;;;;;;4933490;28;20400;-79
2021/12/05 15:22:36;;;;;;;5.10;1.80;;;3.20;99.90;;;;;;4942465;28;20046;-77
2021/12/05 15:25:06;;;;;;;6.33;2.00;;;3.10;99.90;;;;;;4951451;28;20096;-78
2021/12/05 15:27:33;;;;;;;5.90;1.67;;;3.00;99.90;;;;;;4949486;28;20110;-79
2021/12/05 15:30:28;;;;;;;5.60;1.80;;;2.90;99.90;;;;;;4951877;28;20392;-81
2021/12/05 15:32:59;;;;;;;8.73;2.70;;;2.80;99.90;;;;;;4979370;28;20029;-79
2021/12/05 15:35:25;;;;;;;38.83;4.70;;;2.80;99.90;;;;;;5052491;28;20029;-82
2021/12/05 15:37:53;;;;;;;7.90;2.73;;;2.70;99.90;;;;;;5025734;28;20020;-83
2021/12/05 15:40:19;;;;;;;5.77;2.77;;;2.70;99.90;;;;;;4952184;28;20849;-85
2021/12/05 15:42:46;;;;;;;11.93;5.97;;;2.70;99.90;;;;;;4949998;28;20031;-83
2021/12/05 15:45:15;;;;;;;36.33;18.03;;;2.60;99.90;;;;;;4951762;28;20051;-85
2021/12/05 15:47:43;;;;;;;47.83;24.40;;;2.60;99.90;;;;;;4959123;28;20234;-81
2021/12/05 15:50:10;;;;;;;20.07;10.57;;;2.50;99.90;;;;;;5045673;28;20130;-81
2021/12/05 15:52:48;;;;;;;44.67;21.57;;;2.50;99.90;;;;;;5052840;28;20537;-80
2021/12/05 15:55:31;;;;;;;74.33;38.80;;;2.40;99.90;;;;;;5052300;28;20131;-79
2021/12/05 15:58:08;;;;;;;94.73;47.07;;;2.40;99.90;;;;;;5044086;28;20024;-82
2021/12/05 16:00:51;;;;;;;41.63;21.27;;;2.40;99.90;;;;;;5051877;28;20453;-86
2021/12/05 16:03:20;;;;;;;12.30;6.93;;;2.40;99.90;;;;;;5053420;28;20013;-85
2021/12/05 16:05:53;;;;;;;14.93;6.73;;;2.30;99.90;;;;;;5014911;28;20121;-80
2021/12/05 16:08:18;;;;;;;21.93;12.13;;;2.30;99.90;;;;;;4950627;28;20098;-87
2021/12/05 16:10:50;;;;;;;4.77;2.77;;;2.30;99.90;;;;;;4951687;29;20034;-85
2021/12/05 16:13:38;;;;;;;4.87;2.70;;;2.30;99.90;;;;;;4952301;28;20038;-85
2021/12/05 16:16:22;;;;;;;5.73;2.30;;;2.30;99.90;;;;;;5002365;28;20464;-83
2021/12/05 16:18:52;;;;;;;67.10;34.90;;;2.30;99.90;;;;;;5007052;28;20080;-80
2021/12/05 16:21:26;;;;;;;278.07;139.73;;;2.20;99.90;;;;;;4958871;28;20071;-84
2021/12/05 16:23:52;;;;;;;25.50;14.87;;;2.30;99.90;;;;;;4967327;28;20027;-83
2021/12/05 16:26:28;;;;;;;34.83;17.37;;;2.30;99.90;;;;;;5052250;28;20032;-80
2021/12/05 16:28:58;;;;;;;9.30;5.17;;;2.30;99.90;;;;;;5052306;28;20556;-84
2021/12/05 16:31:42;;;;;;;8.43;3.93;;;2.30;99.90;;;;;;5052352;28;20032;-83
2021/12/05 16:34:23;;;;;;;10.07;4.33;;;2.30;99.90;;;;;;5047299;28;20021;-83
2021/12/05 16:37:05;;;;;;;16.20;11.43;;;2.30;99.90;;;;;;4956579;28;20027;-83
2021/12/05 16:39:35;;;;;;;12.83;5.50;;;2.40;99.90;;;;;;4950474;28;20020;-83
2021/12/05 16:42:06;;;;;;;4.47;2.73;;;2.50;99.90;;;;;;4951757;28;20031;-83
2021/12/05 16:44:38;;;;;;;3.67;2.10;;;2.40;99.90;;;;;;4951163;28;20426;-83
2021/12/05 16:47:12;;;;;;;4.60;2.20;;;2.50;99.90;;;;;;4977535;28;20074;-83
2021/12/05 16:49:44;;;;;;;5.20;2.00;;;2.50;99.90;;;;;;5051121;28;20513;-83
2021/12/05 16:52:30;;;;;;;4.97;2.30;;;2.40;99.90;;;;;;4983519;28;20050;-82
2021/12/05 16:55:03;;;;;;;;;;;2.40;99.90;;;;;;4951697;28;20045;-82
2021/12/05 16:57:40;;;;;;;5.23;2.63;;;2.40;99.90;;;;;;4951302;28;19910;-82
2021/12/05 17:00:19;;;;;;;5.90;3.13;;;2.40;99.90;;;;;;4951051;28;20027;-81
2021/12/05 17:02:51;;;;;;;5.10;2.87;;;2.40;99.90;;;;;;4953562;28;20084;-82
2021/12/05 17:05:26;;;;;;;5.80;4.10;;;2.40;99.90;;;;;;4953692;28;20035;-82
2021/12/05 17:10:37;;;;;;;8.73;5.60;;;2.40;99.90;;;;;;5006924;28;20460;-82
2021/12/05 17:13:05;;;;;;;10.23;4.47;;;2.40;99.90;;;;;;4932098;28;20384;-82
2021/12/05 17:15:33;;;;;;;4.90;2.93;;;2.40;99.90;;;;;;4932133;28;20410;-80
2021/12/05 17:18:03;;;;;;;4.97;3.63;;;2.40;99.90;;;;;;4931758;29;20139;-83
2021/12/05 17:20:32;;;;;;;7.50;4.97;;;2.40;99.90;;;;;;4932343;29;20361;-83
2021/12/05 17:23:06;;;;;;;6.47;4.20;;;2.40;99.90;;;;;;5026254;28;20021;-84
2021/12/05 17:25:41;;;;;;;6.80;4.30;;;2.40;99.90;;;;;;5051179;28;20558;-81
2021/12/05 17:28:32;;;;;;;6.47;3.43;;;2.40;99.90;;;;;;5042865;28;20025;-82
2021/12/05 17:31:01;;;;;;;8.63;3.70;;;2.40;99.90;;;;;;4997263;28;20047;-82
2021/12/05 17:33:28;;;;;;;5.87;2.77;;;2.40;99.90;;;;;;4998737;28;20028;-81
2021/12/05 17:35:55;;;;;;;8.40;3.20;;;2.40;99.90;;;;;;4997388;28;20102;-81
2021/12/05 17:38:35;;;;;;;5.07;3.30;;;2.40;99.90;;;;;;5000541;28;20697;-82
2021/12/05 17:41:01;;;;;;;5.77;3.70;;;2.40;99.90;;;;;;4991806;28;20125;-81
2021/12/05 17:43:27;;;;;;;7.33;3.60;;;2.30;99.90;;;;;;4950263;28;20420;-82
2021/12/05 17:45:53;;;;;;;7.13;3.70;;;2.30;99.90;;;;;;4950160;28;20102;-81
2021/12/05 17:48:19;;;;;;;5.20;2.80;;;2.30;99.90;;;;;;4952807;28;20031;-78
2021/12/05 17:50:44;;;;;;;3.97;2.40;;;2.30;99.90;;;;;;4954008;28;20035;-86
2021/12/05 17:53:10;;;;;;;4.60;2.93;;;2.30;99.90;;;;;;5015665;28;20037;-82
2021/12/05 17:55:43;;;;;;;5.40;3.30;;;2.30;99.90;;;;;;4978830;28;20421;-72
2021/12/05 17:58:22;;;;;;;6.33;2.50;;;2.30;99.90;;;;;;4952607;28;20368;-77
2021/12/05 18:02:36;;;;;;;5.90;2.13;;;2.40;99.90;;;;;;4952433;28;20016;-80
2021/12/05 18:03:43;;;;;;;4.15;2.50;;;2.50;99.90;;;;;;4952297;29;20530;-76
2021/12/05 18:06:09;;;;;;;5.07;2.50;;;2.60;99.90;;;;;;5010449;28;20064;-76
2021/12/05 18:08:34;;;;;;;4.47;2.37;;;2.70;99.90;;;;;;5053233;28;20028;-77
2021/12/05 18:11:03;;;;;;;5.57;3.53;;;2.70;99.90;;;;;;5017179;28;20039;-77
2021/12/05 18:13:33;;;;;;;6.10;2.90;;;2.80;99.90;;;;;;4996513;28;20551;-77
2021/12/05 18:16:05;;;;;;;10.10;3.67;;;2.80;99.90;;;;;;4991845;28;20037;-77
2021/12/05 18:18:33;;;;;;;8.33;3.90;;;3.00;99.90;;;;;;4993640;28;20479;-76
2021/12/05 18:21:00;;;;;;;7.40;4.43;;;3.10;99.90;;;;;;4995023;28;20053;-77
2021/12/05 18:23:26;;;;;;;5.60;3.10;;;3.10;99.90;;;;;;4998028;28;20154;-79
2021/12/05 18:25:52;;;;;;;5.60;3.17;;;3.10;99.90;;;;;;5001572;28;20158;-77
2021/12/05 18:28:18;;;;;;;8.33;4.60;;;3.20;99.90;;;;;;4996573;28;20040;-77
2021/12/05 18:30:45;;;;;;;8.73;4.40;;;3.10;99.90;;;;;;4997281;28;20450;-76
2021/12/05 18:33:14;;;;;;;7.03;4.63;;;3.10;99.90;;;;;;4998356;28;20051;-78
2021/12/05 18:35:40;;;;;;;8.37;4.73;;;2.90;99.90;;;;;;4995368;28;20581;-78
2021/12/05 18:38:09;;;;;;;15.63;8.10;;;2.90;99.90;;;;;;4997352;28;20032;-78
2021/12/05 18:40:39;;;;;;;11.83;6.00;;;2.90;99.90;;;;;;4997462;28;20035;-78